createdAt,value
2018-09-11T00:00:25.793Z,4.93
2018-09-11T00:02:52.949Z,4.80
2018-09-11T00:05:20.206Z,10.07
2018-09-11T00:07:47.288Z,3.20
2018-09-11T00:10:14.369Z,3.97
2018-09-11T00:12:41.469Z,3.93
2018-09-11T00:15:08.545Z,6.93
2018-09-11T00:17:35.621Z,2.53
2018-09-11T00:20:02.723Z,7.33
2018-09-11T00:22:29.793Z,8.00
2018-09-11T00:24:57.891Z,3.30
2018-09-11T00:27:24.961Z,3.47
2018-09-11T00:29:52.029Z,5.23
2018-09-11T00:32:23.241Z,3.60
2018-09-11T00:34:50.317Z,5.53
2018-09-11T00:37:21.474Z,5.17
2018-09-11T00:39:48.566Z,6.60
2018-09-11T00:42:15.633Z,4.37
2018-09-11T00:44:42.701Z,6.57
2018-09-11T00:47:09.781Z,4.67
2018-09-11T00:49:36.875Z,7.33
2018-09-11T00:52:03.946Z,4.60
2018-09-11T00:54:31.217Z,3.40
2018-09-11T00:56:58.784Z,2.83
2018-09-11T00:59:25.847Z,8.23
2018-09-11T01:01:52.918Z,5.97
2018-09-11T01:04:20.036Z,4.33
2018-09-11T01:06:47.105Z,7.97
2018-09-11T01:09:14.217Z,4.23
2018-09-11T01:11:41.293Z,6.93
2018-09-11T01:14:08.365Z,5.77
2018-09-11T01:16:35.441Z,3.77
2018-09-11T01:19:02.516Z,11.43
2018-09-11T01:21:29.585Z,7.77
2018-09-11T01:23:56.985Z,6.33
2018-09-11T01:26:24.077Z,9.43
2018-09-11T01:28:51.141Z,5.07
2018-09-11T01:31:18.221Z,6.20
2018-09-11T01:33:45.322Z,5.73
2018-09-11T01:36:12.449Z,11.03
2018-09-11T01:38:39.546Z,6.00
2018-09-11T01:41:06.969Z,11.40
2018-09-11T01:43:34.037Z,3.67
2018-09-11T01:46:01.106Z,7.17
2018-09-11T01:48:28.185Z,5.33
2018-09-11T01:50:55.250Z,8.23
2018-09-11T01:53:22.313Z,8.33
2018-09-11T01:55:49.700Z,12.23
2018-09-11T01:58:16.765Z,10.47
2018-09-11T02:00:43.835Z,6.97
2018-09-11T02:03:10.918Z,11.90
2018-09-11T02:05:37.993Z,5.57
2018-09-11T02:08:05.076Z,14.33
2018-09-11T02:10:32.162Z,6.40
2018-09-11T02:12:59.235Z,6.20
2018-09-11T02:15:26.333Z,10.93
2018-09-11T02:17:53.445Z,9.13
2018-09-11T02:20:20.553Z,8.87
2018-09-11T02:22:47.626Z,8.40
2018-09-11T02:25:15.058Z,5.47
2018-09-11T02:27:42.138Z,6.33
2018-09-11T02:30:09.236Z,6.53
2018-09-11T02:32:36.330Z,9.27
2018-09-11T02:35:03.409Z,9.63
2018-09-11T02:37:30.489Z,6.77
2018-09-11T02:39:57.561Z,5.70
2018-09-11T02:42:24.634Z,5.57
2018-09-11T02:44:51.721Z,6.90
2018-09-11T02:47:18.790Z,7.53
2018-09-11T02:49:45.859Z,12.80
2018-09-11T02:52:12.994Z,8.87
2018-09-11T02:54:40.511Z,8.57
2018-09-11T02:57:07.610Z,8.13
2018-09-11T02:59:35.033Z,12.27
2018-09-11T03:02:02.111Z,4.20
2018-09-11T03:04:29.189Z,10.07
2018-09-11T03:06:56.289Z,5.80
2018-09-11T03:09:23.402Z,8.47
2018-09-11T03:11:50.481Z,9.37
2018-09-11T03:14:23.607Z,10.50
2018-09-11T03:16:50.682Z,14.63
2018-09-11T03:19:17.773Z,9.63
2018-09-11T03:21:44.855Z,12.73
2018-09-11T03:24:11.939Z,12.80
2018-09-11T03:26:39.403Z,6.23
2018-09-11T03:29:06.501Z,10.17
2018-09-11T03:31:33.603Z,12.10
2018-09-11T03:34:00.678Z,7.53
2018-09-11T03:36:28.095Z,7.00
2018-09-11T03:38:55.185Z,9.37
2018-09-11T03:41:22.281Z,5.10
2018-09-11T03:43:49.361Z,13.07
2018-09-11T03:46:16.447Z,11.77
2018-09-11T03:48:47.561Z,8.70
2018-09-11T03:51:14.651Z,9.43
2018-09-11T03:53:41.734Z,8.33
2018-09-11T03:56:08.816Z,7.07
2018-09-11T03:58:35.938Z,11.50
2018-09-11T04:01:03.014Z,10.50
2018-09-11T04:03:30.390Z,10.00
2018-09-11T04:05:57.508Z,6.97
2018-09-11T04:08:24.577Z,7.90
2018-09-11T04:10:51.684Z,8.60
2018-09-11T04:13:18.778Z,7.93
2018-09-11T04:15:45.858Z,12.20
2018-09-11T04:18:12.963Z,6.90
2018-09-11T04:20:40.037Z,7.87
2018-09-11T04:23:07.142Z,8.03
2018-09-11T04:25:34.310Z,4.17
2018-09-11T04:28:01.325Z,7.27
2018-09-11T04:30:28.429Z,5.00
2018-09-11T04:32:55.710Z,8.67
2018-09-11T04:35:22.793Z,5.07
2018-09-11T04:37:49.885Z,16.23
2018-09-11T04:40:16.955Z,6.10
2018-09-11T04:42:44.026Z,11.93
2018-09-11T04:45:11.138Z,5.50
2018-09-11T04:47:38.210Z,7.80
2018-09-11T04:50:05.727Z,4.80
2018-09-11T04:52:32.823Z,9.83
2018-09-11T04:54:59.897Z,4.63
2018-09-11T04:57:26.965Z,4.97
2018-09-11T04:59:54.034Z,4.23
2018-09-11T05:02:21.124Z,4.43
2018-09-11T05:04:48.198Z,6.63
2018-09-11T05:07:15.613Z,5.37
2018-09-11T05:09:42.697Z,7.30
2018-09-11T05:12:09.777Z,4.87
2018-09-11T05:14:36.849Z,3.83
2018-09-11T05:17:04.025Z,5.33
2018-09-11T05:19:31.106Z,6.03
2018-09-11T05:21:58.173Z,7.67
2018-09-11T05:24:25.250Z,9.67
2018-09-11T05:26:52.326Z,10.77
2018-09-11T05:29:25.457Z,9.23
2018-09-11T05:31:52.513Z,8.57
2018-09-11T05:34:21.702Z,5.73
2018-09-11T05:36:48.809Z,8.23
2018-09-11T05:39:15.882Z,8.27
2018-09-11T05:41:47.049Z,6.47
2018-09-11T05:44:20.241Z,7.70
2018-09-11T05:46:47.351Z,6.20
2018-09-11T05:49:14.437Z,12.93
2018-09-11T05:51:41.574Z,8.97
2018-09-11T05:54:09.061Z,10.47
2018-09-11T05:56:36.145Z,7.80
2018-09-11T05:59:03.219Z,6.77
2018-09-11T06:01:30.342Z,5.20
2018-09-11T06:03:57.421Z,5.93
2018-09-11T06:06:24.489Z,9.77
2018-09-11T06:08:51.577Z,12.10
2018-09-11T06:11:18.669Z,10.80
2018-09-11T06:13:45.749Z,9.93
2018-09-11T06:16:12.853Z,9.33
2018-09-11T06:18:39.929Z,11.77
2018-09-11T06:21:07.009Z,9.90
2018-09-11T06:23:34.085Z,8.23
2018-09-11T06:26:01.373Z,6.70
2018-09-11T06:28:28.449Z,9.13
2018-09-11T06:30:55.533Z,8.40
2018-09-11T06:33:22.738Z,4.63
2018-09-11T06:35:49.818Z,7.50
2018-09-11T06:38:16.897Z,6.77
2018-09-11T06:40:44.078Z,8.53
2018-09-11T06:43:13.258Z,7.70
2018-09-11T06:45:40.360Z,6.80
2018-09-11T06:48:07.722Z,5.97
2018-09-11T06:50:34.797Z,4.30
2018-09-11T06:53:01.864Z,7.17
2018-09-11T06:55:29.017Z,5.20
2018-09-11T06:57:56.105Z,4.87
2018-09-11T07:00:23.209Z,4.70
2018-09-11T07:02:50.298Z,7.47
2018-09-11T07:05:17.366Z,5.13
2018-09-11T07:07:44.449Z,5.70
2018-09-11T07:10:11.527Z,4.17
2018-09-11T07:12:38.605Z,6.70
2018-09-11T07:15:06.117Z,6.27
2018-09-11T07:17:33.200Z,7.00
2018-09-11T07:20:00.325Z,6.30
2018-09-11T07:22:27.389Z,2.50
2018-09-11T07:24:54.479Z,3.73
2018-09-11T07:27:21.553Z,7.07
2018-09-11T07:29:48.690Z,4.17
2018-09-11T07:32:15.809Z,5.10
2018-09-11T07:34:42.843Z,5.27
2018-09-11T07:37:09.931Z,7.63
2018-09-11T07:39:37.017Z,4.43
2018-09-11T07:42:04.105Z,3.23
2018-09-11T07:44:31.193Z,3.17
2018-09-11T07:47:00.376Z,4.20
2018-09-11T07:49:27.473Z,4.43
2018-09-11T07:51:54.546Z,7.23
2018-09-11T07:54:21.809Z,7.63
2018-09-11T07:56:48.881Z,4.57
2018-09-11T07:59:15.957Z,3.97
2018-09-11T08:01:43.057Z,5.93
2018-09-11T08:04:10.141Z,4.60
2018-09-11T08:06:37.246Z,4.80
2018-09-11T08:09:07.650Z,8.40
2018-09-11T08:11:34.919Z,4.13
2018-09-11T08:14:02.008Z,2.43
2018-09-11T08:16:29.156Z,6.93
2018-09-11T08:18:56.191Z,2.17
2018-09-11T08:21:23.278Z,6.00
2018-09-11T08:23:50.373Z,3.73
2018-09-11T08:26:17.449Z,4.07
2018-09-11T08:28:44.521Z,7.70
2018-09-11T08:31:13.678Z,10.23
2018-09-11T08:33:40.806Z,6.47
2018-09-11T08:36:07.894Z,6.80
2018-09-11T08:38:34.989Z,3.00
2018-09-11T08:41:02.132Z,7.67
2018-09-11T08:43:29.157Z,3.50
2018-09-11T08:45:56.237Z,4.77
2018-09-11T08:48:23.321Z,7.37
2018-09-11T08:50:50.406Z,4.60
2018-09-11T08:53:17.486Z,3.60
2018-09-11T08:55:50.565Z,10.13
2018-09-11T08:58:17.647Z,7.70
2018-09-11T09:00:46.809Z,5.40
2018-09-11T09:03:13.885Z,3.83
2018-09-11T09:05:40.957Z,6.07
2018-09-11T09:08:08.045Z,9.23
2018-09-11T09:10:35.122Z,4.83
2018-09-11T09:13:02.197Z,7.97
2018-09-11T09:15:29.284Z,4.33
2018-09-11T09:17:56.377Z,5.43
2018-09-11T09:20:23.645Z,4.53
2018-09-11T09:22:50.725Z,10.97
2018-09-11T09:25:17.825Z,3.50
2018-09-11T09:27:45.009Z,5.27
2018-09-11T09:30:12.089Z,3.80
2018-09-11T09:32:39.154Z,9.50
2018-09-11T09:35:06.590Z,5.60
2018-09-11T09:37:33.710Z,4.13
2018-09-11T09:40:00.786Z,4.40
2018-09-11T09:42:27.889Z,1.73
2018-09-11T09:44:54.959Z,3.47
2018-09-11T09:47:24.709Z,6.50
2018-09-11T09:49:51.786Z,6.03
2018-09-11T09:52:18.865Z,8.93
2018-09-11T09:54:45.996Z,3.13
2018-09-11T09:57:13.069Z,4.73
2018-09-11T09:59:40.141Z,5.03
2018-09-11T10:02:13.093Z,6.00
2018-09-11T10:04:40.192Z,6.33
2018-09-11T10:07:07.246Z,2.27
2018-09-11T10:09:34.333Z,6.60
2018-09-11T10:12:01.401Z,5.07
2018-09-11T10:14:28.476Z,2.50
2018-09-11T10:17:01.625Z,3.93
2018-09-11T10:19:30.733Z,2.73
2018-09-11T10:21:57.805Z,7.10
2018-09-11T10:24:24.886Z,3.60
2018-09-11T10:26:51.965Z,4.03
2018-09-11T10:29:19.045Z,8.23
2018-09-11T10:31:46.397Z,4.23
2018-09-11T10:34:13.486Z,5.30
2018-09-11T10:36:40.561Z,3.77
2018-09-11T10:39:08.250Z,4.97
2018-09-11T10:41:35.445Z,7.23
2018-09-11T10:44:02.540Z,6.30
2018-09-11T10:46:29.705Z,9.70
2018-09-11T10:48:58.849Z,12.00
2018-09-11T10:51:25.927Z,8.33
2018-09-11T10:53:53.002Z,3.80
2018-09-11T10:56:22.098Z,5.47
2018-09-11T10:58:49.178Z,4.13
2018-09-11T11:01:16.265Z,2.47
2018-09-11T11:03:43.366Z,5.23
2018-09-11T11:06:10.447Z,4.87
2018-09-11T11:08:43.564Z,2.73
2018-09-11T11:11:10.637Z,3.60
2018-09-11T11:13:37.714Z,5.67
2018-09-11T11:16:04.925Z,3.07
2018-09-11T11:18:31.993Z,4.90
2018-09-11T11:20:59.081Z,4.13
2018-09-11T11:23:26.158Z,3.00
2018-09-11T11:25:53.241Z,4.37
2018-09-11T11:28:20.317Z,4.60
2018-09-11T11:30:47.394Z,2.30
2018-09-11T11:33:14.477Z,3.90
2018-09-11T11:35:41.541Z,10.20
2018-09-11T11:38:08.625Z,5.53
2018-09-11T11:40:35.703Z,6.13
2018-09-11T11:43:02.778Z,3.70
2018-09-11T11:45:29.865Z,5.40
2018-09-11T11:47:56.949Z,3.57
2018-09-11T11:50:24.040Z,4.20
2018-09-11T11:52:51.148Z,3.27
2018-09-11T11:55:18.281Z,2.90
2018-09-11T11:57:45.337Z,4.03
2018-09-11T12:00:12.474Z,5.00
2018-09-11T12:02:39.554Z,1.60
2018-09-11T12:05:06.646Z,1.80
2018-09-11T12:07:33.742Z,3.07
2018-09-11T12:10:00.809Z,3.97
2018-09-11T12:12:27.890Z,3.10
2018-09-11T12:14:55.100Z,4.87
2018-09-11T12:17:22.177Z,3.83
2018-09-11T12:19:49.270Z,1.30
2018-09-11T12:22:16.346Z,4.17
2018-09-11T12:24:43.474Z,1.70
2018-09-11T12:27:10.545Z,3.60
2018-09-11T12:29:37.657Z,5.47
2018-09-11T12:32:08.853Z,3.40
2018-09-11T12:34:35.929Z,4.30
2018-09-11T12:37:03.001Z,4.20
2018-09-11T12:39:30.085Z,2.70
2018-09-11T12:41:57.329Z,1.93
2018-09-11T12:44:24.409Z,6.23
2018-09-11T12:46:51.559Z,3.90
2018-09-11T12:49:18.565Z,3.23
2018-09-11T12:51:45.646Z,4.23
2018-09-11T12:54:12.856Z,8.03
2018-09-11T12:56:39.925Z,7.13
2018-09-11T12:59:07.034Z,6.83
2018-09-11T13:01:34.121Z,1.70
2018-09-11T13:04:03.252Z,1.87
2018-09-11T13:06:30.345Z,8.83
2018-09-11T13:08:57.465Z,3.80
2018-09-11T13:11:28.564Z,4.70
2018-09-11T13:13:55.646Z,4.00
2018-09-11T13:16:22.709Z,1.87
2018-09-11T13:18:49.852Z,5.77
2018-09-11T13:21:16.941Z,2.73
2018-09-11T13:23:44.010Z,1.87
2018-09-11T13:26:11.756Z,5.00
2018-09-11T13:28:38.838Z,3.53
2018-09-11T13:31:05.934Z,6.00
2018-09-11T13:33:33.009Z,5.90
2018-09-11T13:36:00.083Z,4.57
2018-09-11T13:38:27.156Z,3.20
2018-09-11T13:40:54.242Z,2.20
2018-09-11T13:43:25.453Z,2.23
2018-09-11T13:45:52.526Z,5.77
2018-09-11T13:48:19.601Z,3.70
2018-09-11T13:50:50.765Z,9.43
2018-09-11T13:53:17.838Z,3.07
2018-09-11T13:55:44.921Z,4.40
2018-09-11T13:58:14.078Z,5.33
2018-09-11T14:00:41.154Z,3.47
2018-09-11T14:03:08.238Z,3.17
2018-09-11T14:05:37.386Z,5.93
2018-09-11T14:08:04.957Z,4.27
2018-09-11T14:10:32.034Z,4.90
2018-09-11T14:12:59.109Z,7.33
2018-09-11T14:15:26.214Z,3.07
2018-09-11T14:17:53.312Z,3.53
2018-09-11T14:20:20.390Z,3.37
2018-09-11T14:22:47.486Z,4.57
2018-09-11T14:25:14.565Z,5.13
2018-09-11T14:27:41.642Z,3.53
2018-09-11T14:30:10.785Z,4.87
2018-09-11T14:32:37.862Z,3.10
2018-09-11T14:35:05.102Z,4.00
2018-09-11T14:37:36.238Z,5.03
2018-09-11T14:40:03.314Z,3.40
2018-09-11T14:42:30.399Z,3.00
2018-09-11T14:44:57.491Z,9.57
2018-09-11T14:47:29.193Z,2.87
2018-09-11T14:49:56.285Z,5.57
2018-09-11T14:52:23.357Z,4.43
2018-09-11T14:54:50.441Z,5.33
2018-09-11T14:57:17.527Z,7.63
2018-09-11T14:59:44.605Z,10.67
2018-09-11T15:02:11.690Z,6.77
2018-09-11T15:04:38.762Z,7.73
2018-09-11T15:07:05.829Z,6.67
2018-09-11T15:09:32.918Z,8.17
2018-09-11T15:12:00.001Z,6.77
2018-09-11T15:14:27.081Z,5.80
2018-09-11T15:16:54.147Z,9.67
2018-09-11T15:19:21.224Z,4.00
2018-09-11T15:21:48.293Z,4.70
2018-09-11T15:24:16.157Z,9.03
2018-09-11T15:26:43.252Z,12.27
2018-09-11T15:29:10.335Z,6.57
2018-09-11T15:31:37.411Z,5.83
2018-09-11T15:34:04.496Z,9.80
2018-09-11T15:36:31.567Z,4.57
2018-09-11T15:38:58.633Z,7.97
2018-09-11T15:41:29.758Z,7.10
2018-09-11T15:44:00.962Z,8.97
2018-09-11T15:46:32.045Z,5.67
2018-09-11T15:48:59.130Z,10.50
2018-09-11T15:51:26.209Z,13.13
2018-09-11T15:53:53.333Z,7.90
2018-09-11T15:56:20.413Z,15.40
2018-09-11T15:58:47.506Z,11.37
2018-09-11T16:01:14.602Z,6.23
2018-09-11T16:03:41.678Z,14.67
2018-09-11T16:06:08.806Z,8.40
2018-09-11T16:08:35.886Z,9.03
2018-09-11T16:11:02.957Z,10.20
2018-09-11T16:13:30.057Z,11.33
2018-09-11T16:15:57.125Z,11.13
2018-09-11T16:18:24.186Z,11.73
2018-09-11T16:20:51.312Z,7.83
2018-09-11T16:23:18.359Z,12.30
2018-09-11T16:25:45.438Z,8.87
2018-09-11T16:28:14.613Z,6.60
2018-09-11T16:30:41.690Z,9.13
2018-09-11T16:33:08.791Z,7.50
2018-09-11T16:35:37.926Z,5.60
2018-09-11T16:38:05.001Z,5.80
2018-09-11T16:40:32.077Z,7.90
2018-09-11T16:45:32.453Z,9.57
2018-09-11T16:47:59.526Z,9.00
2018-09-11T16:50:30.681Z,9.37
2018-09-11T16:52:57.769Z,8.77
2018-09-11T16:55:24.845Z,16.70
2018-09-11T16:57:55.938Z,11.13
2018-09-11T17:00:23.024Z,10.93
2018-09-11T17:02:50.143Z,16.20
2018-09-11T17:05:17.492Z,14.17
2018-09-11T17:07:44.565Z,21.33
2018-09-11T17:10:11.638Z,14.90
2018-09-11T17:12:39.046Z,8.93
2018-09-11T17:15:06.121Z,9.43
2018-09-11T17:17:33.213Z,10.43
2018-09-11T17:20:00.310Z,10.00
2018-09-11T17:22:27.390Z,15.70
2018-09-11T17:24:54.469Z,15.87
2018-09-11T17:27:27.625Z,10.17
2018-09-11T17:29:54.706Z,6.43
2018-09-11T17:32:23.785Z,12.83
2018-09-11T17:34:52.898Z,11.97
2018-09-11T17:37:24.086Z,14.27
2018-09-11T17:39:51.250Z,18.27
2018-09-11T17:42:20.395Z,12.63
2018-09-11T17:44:47.490Z,9.77
2018-09-11T17:47:14.573Z,9.37
2018-09-11T17:49:41.749Z,19.10
2018-09-11T17:52:10.855Z,21.73
2018-09-11T17:54:37.929Z,11.53
2018-09-11T17:57:05.012Z,8.43
2018-09-11T17:59:34.110Z,12.87
2018-09-11T18:02:01.218Z,17.83
2018-09-11T18:04:28.288Z,15.57
2018-09-11T18:06:55.376Z,11.60
2018-09-11T18:09:22.449Z,19.70
2018-09-11T18:11:49.561Z,13.87
2018-09-11T18:14:16.637Z,9.63
2018-09-11T18:16:43.708Z,13.50
2018-09-11T18:19:10.794Z,13.97
2018-09-11T18:21:37.869Z,13.60
2018-09-11T18:24:04.955Z,10.60
2018-09-11T18:26:32.042Z,12.70
2018-09-11T18:28:59.123Z,12.67
2018-09-11T18:31:26.205Z,17.43
2018-09-11T18:33:53.299Z,14.90
2018-09-11T18:36:20.374Z,11.60
2018-09-11T18:38:47.461Z,11.17
2018-09-11T18:41:14.845Z,17.53
2018-09-11T18:43:41.937Z,9.37
2018-09-11T18:46:09.197Z,14.27
2018-09-11T18:48:36.298Z,18.60
2018-09-11T18:51:03.395Z,10.40
2018-09-11T18:53:32.510Z,12.03
2018-09-11T18:55:59.582Z,9.00
2018-09-11T18:58:28.761Z,5.73
2018-09-11T19:00:55.850Z,10.43
2018-09-11T19:03:22.944Z,8.80
2018-09-11T19:05:50.047Z,12.43
2018-09-11T19:08:17.168Z,7.87
2018-09-11T19:10:44.274Z,16.47
2018-09-11T19:13:11.385Z,10.00
2018-09-11T19:15:38.509Z,10.50
2018-09-11T19:18:05.602Z,8.20
2018-09-11T19:20:32.692Z,10.37
2018-09-11T19:22:59.789Z,10.30
2018-09-11T19:25:26.869Z,7.90
2018-09-11T19:27:58.005Z,6.80
2018-09-11T19:30:25.081Z,7.80
2018-09-11T19:32:54.258Z,9.90
2018-09-11T19:35:21.351Z,13.67
2018-09-11T19:37:48.433Z,7.87
2018-09-11T19:40:19.515Z,7.17
2018-09-11T19:42:46.590Z,8.60
2018-09-11T19:45:15.993Z,7.33
2018-09-11T19:50:16.097Z,19.47
2018-09-11T19:52:43.138Z,15.67
2018-09-11T19:55:10.221Z,21.10
2018-09-11T19:57:37.338Z,12.63
2018-09-11T20:00:05.386Z,14.97
2018-09-11T20:02:32.750Z,17.67
2018-09-11T20:04:59.942Z,15.60
2018-09-11T20:07:26.962Z,13.70
2018-09-11T20:09:54.050Z,10.47
2018-09-11T20:12:21.130Z,13.80
2018-09-11T20:14:48.223Z,13.77
2018-09-11T20:17:17.747Z,15.43
2018-09-11T20:19:44.833Z,18.97
2018-09-11T20:22:12.184Z,15.27
2018-09-11T20:24:41.822Z,11.47
2018-09-11T20:27:09.318Z,11.50
2018-09-11T20:29:36.474Z,11.83
2018-09-11T20:32:03.600Z,17.73
2018-09-11T20:34:30.957Z,9.93
2018-09-11T20:36:58.182Z,12.10
2018-09-11T20:39:25.259Z,8.43
2018-09-11T20:41:52.357Z,14.77
2018-09-11T20:44:19.436Z,13.63
2018-09-11T20:46:46.527Z,11.53
2018-09-11T20:49:13.886Z,11.03
2018-09-11T20:51:40.959Z,9.87
2018-09-11T20:54:08.035Z,9.97
2018-09-11T20:56:37.198Z,9.43
2018-09-11T20:59:04.273Z,10.00
2018-09-11T21:01:31.341Z,8.60
2018-09-11T21:03:58.440Z,9.27
2018-09-11T21:06:25.518Z,9.73
2018-09-11T21:08:52.610Z,6.07
2018-09-11T21:11:19.693Z,7.87
2018-09-11T21:13:46.898Z,6.83
2018-09-11T21:16:14.030Z,4.77
2018-09-11T21:18:41.186Z,5.77
2018-09-11T21:21:08.647Z,5.97
2018-09-11T21:23:35.742Z,6.97
2018-09-11T21:26:02.817Z,5.70
2018-09-11T21:28:29.914Z,7.10
2018-09-11T21:30:57.025Z,5.83
2018-09-11T21:33:24.106Z,5.40
2018-09-11T21:35:51.229Z,7.87
2018-09-11T21:38:18.305Z,6.63
2018-09-11T21:40:49.474Z,6.87
2018-09-11T21:43:16.549Z,6.80
2018-09-11T21:45:43.654Z,7.70
2018-09-11T21:48:12.798Z,4.03
2018-09-11T21:50:39.873Z,6.80
2018-09-11T21:53:08.949Z,8.07
2018-09-11T21:55:36.037Z,9.13
2018-09-11T21:58:03.219Z,3.17
2018-09-11T22:00:32.350Z,4.43
2018-09-11T22:03:03.045Z,5.93
2018-09-11T22:05:34.381Z,6.43
2018-09-11T22:08:01.425Z,4.63
2018-09-11T22:10:28.512Z,5.90
2018-09-11T22:12:55.597Z,3.60
2018-09-11T22:15:22.742Z,7.73
2018-09-11T22:17:49.834Z,4.40
2018-09-11T22:20:16.937Z,5.50
2018-09-11T22:22:44.022Z,8.53
2018-09-11T22:25:11.106Z,6.40
2018-09-11T22:27:42.213Z,4.73
2018-09-11T22:30:09.289Z,7.00
2018-09-11T22:32:36.393Z,5.70
2018-09-11T22:35:03.491Z,6.90
2018-09-11T22:37:30.580Z,4.70
2018-09-11T22:39:57.661Z,5.83
2018-09-11T22:42:24.762Z,4.83
2018-09-11T22:44:51.845Z,5.97
2018-09-11T22:47:18.921Z,7.73
2018-09-11T22:49:46.015Z,7.27
2018-09-11T22:52:13.098Z,8.63
2018-09-11T22:54:40.182Z,8.13
2018-09-11T22:57:07.570Z,7.73
2018-09-11T22:59:34.650Z,7.20
2018-09-11T23:02:01.750Z,10.60
2018-09-11T23:04:28.837Z,13.97
2018-09-11T23:06:55.910Z,10.20
2018-09-11T23:09:23.008Z,11.33
2018-09-11T23:11:50.106Z,12.57
2018-09-11T23:14:17.194Z,8.27
2018-09-11T23:16:44.261Z,8.47
2018-09-11T23:19:11.395Z,13.17
2018-09-11T23:21:38.471Z,12.50
2018-09-11T23:24:05.911Z,7.77
2018-09-11T23:26:33.025Z,12.30
2018-09-11T23:29:00.108Z,10.87
2018-09-11T23:31:27.237Z,9.63
2018-09-11T23:33:54.319Z,9.37
2018-09-11T23:36:21.406Z,11.13
2018-09-11T23:38:48.497Z,15.87
2018-09-11T23:41:15.603Z,11.67
2018-09-11T23:43:42.913Z,12.33
2018-09-11T23:46:09.989Z,7.60
2018-09-11T23:48:37.067Z,12.40
2018-09-11T23:51:04.192Z,15.93
2018-09-11T23:53:31.296Z,12.43
2018-09-11T23:55:58.373Z,13.37
2018-09-11T23:58:25.841Z,10.37
